sensor_id;sensor_type;location;lat;lon;timestamp;P1;durP1;ratioP1;P2;durP2;ratioP2
67749;SDS011;54550;48.838;8.828;2023-03-20T00:01:04;3.40;;;3.03;;
67749;SDS011;54550;48.838;8.828;2023-03-20T00:03:38;5.35;;;2.80;;
67749;SDS011;54550;48.838;8.828;2023-03-20T00:06:04;5.87;;;3.13;;
67749;SDS011;54550;48.838;8.828;2023-03-20T00:08:30;4.47;;;4.07;;
67749;SDS011;54550;48.838;8.828;2023-03-20T00:10:56;6.43;;;4.10;;
67749;SDS011;54550;48.838;8.828;2023-03-20T00:13:23;5.38;;;4.25;;
67749;SDS011;54550;48.838;8.828;2023-03-20T00:15:52;6.43;;;4.28;;
67749;SDS011;54550;48.838;8.828;2023-03-20T00:18:19;8.18;;;5.07;;
67749;SDS011;54550;48.838;8.828;2023-03-20T00:20:47;5.00;;;4.07;;
67749;SDS011;54550;48.838;8.828;2023-03-20T00:23:14;4.13;;;3.55;;
67749;SDS011;54550;48.838;8.828;2023-03-20T00:25:40;4.80;;;3.97;;
67749;SDS011;54550;48.838;8.828;2023-03-20T00:31:10;6.45;;;5.28;;
67749;SDS011;54550;48.838;8.828;2023-03-20T00:33:51;3.95;;;3.65;;
67749;SDS011;54550;48.838;8.828;2023-03-20T00:36:18;4.93;;;2.92;;
67749;SDS011;54550;48.838;8.828;2023-03-20T00:38:43;3.30;;;3.00;;
67749;SDS011;54550;48.838;8.828;2023-03-20T00:41:22;3.83;;;3.03;;
67749;SDS011;54550;48.838;8.828;2023-03-20T00:44:01;5.68;;;3.03;;
67749;SDS011;54550;48.838;8.828;2023-03-20T00:46:53;3.03;;;2.72;;
67749;SDS011;54550;48.838;8.828;2023-03-20T00:49:27;4.78;;;3.38;;
67749;SDS011;54550;48.838;8.828;2023-03-20T00:51:56;5.57;;;2.83;;
67749;SDS011;54550;48.838;8.828;2023-03-20T00:54:22;3.30;;;2.67;;
67749;SDS011;54550;48.838;8.828;2023-03-20T00:56:53;2.33;;;2.17;;
67749;SDS011;54550;48.838;8.828;2023-03-20T00:59:23;3.05;;;2.55;;
67749;SDS011;54550;48.838;8.828;2023-03-20T01:01:53;3.35;;;2.17;;
67749;SDS011;54550;48.838;8.828;2023-03-20T01:04:18;2.70;;;2.30;;
67749;SDS011;54550;48.838;8.828;2023-03-20T01:06:45;2.10;;;1.88;;
67749;SDS011;54550;48.838;8.828;2023-03-20T01:09:10;1.90;;;1.53;;
67749;SDS011;54550;48.838;8.828;2023-03-20T01:11:36;3.35;;;1.90;;
67749;SDS011;54550;48.838;8.828;2023-03-20T01:14:03;1.58;;;1.48;;
67749;SDS011;54550;48.838;8.828;2023-03-20T01:16:30;1.80;;;1.50;;
67749;SDS011;54550;48.838;8.828;2023-03-20T01:18:55;2.60;;;1.60;;
67749;SDS011;54550;48.838;8.828;2023-03-20T01:21:21;2.40;;;1.80;;
67749;SDS011;54550;48.838;8.828;2023-03-20T01:23:47;1.73;;;1.50;;
67749;SDS011;54550;48.838;8.828;2023-03-20T01:26:25;1.60;;;1.48;;
67749;SDS011;54550;48.838;8.828;2023-03-20T01:28:56;1.83;;;1.70;;
67749;SDS011;54550;48.838;8.828;2023-03-20T01:31:21;1.77;;;1.60;;
67749;SDS011;54550;48.838;8.828;2023-03-20T01:33:47;1.90;;;1.53;;
67749;SDS011;54550;48.838;8.828;2023-03-20T01:36:13;1.60;;;1.50;;
67749;SDS011;54550;48.838;8.828;2023-03-20T01:38:41;1.80;;;1.35;;
67749;SDS011;54550;48.838;8.828;2023-03-20T01:43:40;3.75;;;1.67;;
67749;SDS011;54550;48.838;8.828;2023-03-20T01:51:16;1.73;;;1.63;;
67749;SDS011;54550;48.838;8.828;2023-03-20T01:56:22;8.77;;;6.07;;
67749;SDS011;54550;48.838;8.828;2023-03-20T01:58:50;2.97;;;2.67;;
67749;SDS011;54550;48.838;8.828;2023-03-20T02:01:20;3.33;;;3.03;;
67749;SDS011;54550;48.838;8.828;2023-03-20T02:03:47;2.40;;;2.13;;
67749;SDS011;54550;48.838;8.828;2023-03-20T02:06:14;3.15;;;2.17;;
67749;SDS011;54550;48.838;8.828;2023-03-20T02:08:41;3.15;;;2.10;;
67749;SDS011;54550;48.838;8.828;2023-03-20T02:11:10;2.55;;;1.80;;
67749;SDS011;54550;48.838;8.828;2023-03-20T02:13:37;2.25;;;2.05;;
67749;SDS011;54550;48.838;8.828;2023-03-20T02:16:04;6.20;;;2.13;;
67749;SDS011;54550;48.838;8.828;2023-03-20T02:18:41;2.10;;;1.92;;
67749;SDS011;54550;48.838;8.828;2023-03-20T02:45:45;2.58;;;1.60;;
67749;SDS011;54550;48.838;8.828;2023-03-20T02:53:46;2.60;;;1.70;;
67749;SDS011;54550;48.838;8.828;2023-03-20T02:56:23;3.05;;;1.90;;
67749;SDS011;54550;48.838;8.828;2023-03-20T02:59:01;2.85;;;1.52;;
67749;SDS011;54550;48.838;8.828;2023-03-20T03:01:46;3.22;;;1.85;;
67749;SDS011;54550;48.838;8.828;2023-03-20T03:04:22;1.83;;;1.73;;
67749;SDS011;54550;48.838;8.828;2023-03-20T03:06:51;1.58;;;1.38;;
67749;SDS011;54550;48.838;8.828;2023-03-20T03:12:16;2.45;;;1.65;;
67749;SDS011;54550;48.838;8.828;2023-03-20T03:14:49;2.15;;;2.03;;
67749;SDS011;54550;48.838;8.828;2023-03-20T03:17:23;2.28;;;2.08;;
67749;SDS011;54550;48.838;8.828;2023-03-20T03:19:52;2.95;;;2.40;;
67749;SDS011;54550;48.838;8.828;2023-03-20T03:22:23;2.47;;;2.25;;
67749;SDS011;54550;48.838;8.828;2023-03-20T03:24:49;4.88;;;2.53;;
67749;SDS011;54550;48.838;8.828;2023-03-20T03:29:49;3.58;;;1.60;;
67749;SDS011;54550;48.838;8.828;2023-03-20T03:32:20;1.70;;;1.60;;
67749;SDS011;54550;48.838;8.828;2023-03-20T03:35:09;3.60;;;1.90;;
67749;SDS011;54550;48.838;8.828;2023-03-20T03:37:42;1.83;;;1.70;;
67749;SDS011;54550;48.838;8.828;2023-03-20T03:40:28;2.65;;;1.73;;
67749;SDS011;54550;48.838;8.828;2023-03-20T03:43:03;1.50;;;1.40;;
67749;SDS011;54550;48.838;8.828;2023-03-20T03:45:37;2.35;;;1.83;;
67749;SDS011;54550;48.838;8.828;2023-03-20T03:48:29;3.95;;;1.67;;
67749;SDS011;54550;48.838;8.828;2023-03-20T03:50:59;1.75;;;1.50;;
67749;SDS011;54550;48.838;8.828;2023-03-20T03:53:33;2.03;;;1.83;;
67749;SDS011;54550;48.838;8.828;2023-03-20T03:56:04;1.85;;;1.38;;
67749;SDS011;54550;48.838;8.828;2023-03-20T03:58:35;1.48;;;1.38;;
67749;SDS011;54550;48.838;8.828;2023-03-20T04:01:05;1.67;;;1.58;;
67749;SDS011;54550;48.838;8.828;2023-03-20T04:03:37;2.00;;;1.70;;
67749;SDS011;54550;48.838;8.828;2023-03-20T04:06:05;2.58;;;1.98;;
67749;SDS011;54550;48.838;8.828;2023-03-20T04:08:34;1.70;;;1.60;;
67749;SDS011;54550;48.838;8.828;2023-03-20T04:11:00;2.03;;;1.70;;
67749;SDS011;54550;48.838;8.828;2023-03-20T04:13:25;2.33;;;1.77;;
67749;SDS011;54550;48.838;8.828;2023-03-20T04:15:51;2.50;;;1.73;;
67749;SDS011;54550;48.838;8.828;2023-03-20T04:18:17;2.50;;;1.90;;
67749;SDS011;54550;48.838;8.828;2023-03-20T04:20:43;2.58;;;1.60;;
67749;SDS011;54550;48.838;8.828;2023-03-20T04:23:10;2.00;;;1.90;;
67749;SDS011;54550;48.838;8.828;2023-03-20T04:25:35;1.97;;;1.60;;
67749;SDS011;54550;48.838;8.828;2023-03-20T04:28:01;1.73;;;1.40;;
67749;SDS011;54550;48.838;8.828;2023-03-20T04:30:27;2.08;;;1.75;;
67749;SDS011;54550;48.838;8.828;2023-03-20T04:32:53;2.30;;;2.00;;
67749;SDS011;54550;48.838;8.828;2023-03-20T04:35:18;2.50;;;1.20;;
67749;SDS011;54550;48.838;8.828;2023-03-20T04:37:44;3.60;;;1.70;;
67749;SDS011;54550;48.838;8.828;2023-03-20T04:40:10;1.87;;;1.63;;
67749;SDS011;54550;48.838;8.828;2023-03-20T04:42:36;1.65;;;1.55;;
67749;SDS011;54550;48.838;8.828;2023-03-20T04:45:02;2.47;;;1.57;;
67749;SDS011;54550;48.838;8.828;2023-03-20T04:47:28;4.40;;;1.85;;
67749;SDS011;54550;48.838;8.828;2023-03-20T04:49:54;2.50;;;2.00;;
67749;SDS011;54550;48.838;8.828;2023-03-20T04:52:19;5.60;;;2.13;;
67749;SDS011;54550;48.838;8.828;2023-03-20T04:54:45;2.87;;;2.60;;
67749;SDS011;54550;48.838;8.828;2023-03-20T04:57:10;5.70;;;3.03;;
67749;SDS011;54550;48.838;8.828;2023-03-20T04:59:36;3.10;;;2.90;;
67749;SDS011;54550;48.838;8.828;2023-03-20T05:02:01;5.00;;;2.27;;
67749;SDS011;54550;48.838;8.828;2023-03-20T05:04:27;2.60;;;2.13;;
67749;SDS011;54550;48.838;8.828;2023-03-20T05:06:52;4.07;;;2.13;;
67749;SDS011;54550;48.838;8.828;2023-03-20T05:09:18;2.53;;;2.03;;
67749;SDS011;54550;48.838;8.828;2023-03-20T05:11:44;1.73;;;1.60;;
67749;SDS011;54550;48.838;8.828;2023-03-20T05:14:09;2.10;;;1.70;;
67749;SDS011;54550;48.838;8.828;2023-03-20T05:16:36;2.33;;;2.00;;
67749;SDS011;54550;48.838;8.828;2023-03-20T05:19:02;2.03;;;1.70;;
67749;SDS011;54550;48.838;8.828;2023-03-20T05:21:27;2.33;;;2.10;;
67749;SDS011;54550;48.838;8.828;2023-03-20T05:23:53;4.50;;;2.90;;
67749;SDS011;54550;48.838;8.828;2023-03-20T05:26:19;8.67;;;3.00;;
67749;SDS011;54550;48.838;8.828;2023-03-20T05:28:44;10.73;;;3.67;;
67749;SDS011;54550;48.838;8.828;2023-03-20T05:31:10;2.73;;;2.50;;
67749;SDS011;54550;48.838;8.828;2023-03-20T05:33:36;3.20;;;2.03;;
67749;SDS011;54550;48.838;8.828;2023-03-20T05:36:01;2.70;;;2.13;;
67749;SDS011;54550;48.838;8.828;2023-03-20T05:38:27;1.75;;;1.63;;
67749;SDS011;54550;48.838;8.828;2023-03-20T05:40:57;2.90;;;2.07;;
67749;SDS011;54550;48.838;8.828;2023-03-20T05:43:23;3.40;;;1.98;;
67749;SDS011;54550;48.838;8.828;2023-03-20T05:45:49;2.00;;;1.80;;
67749;SDS011;54550;48.838;8.828;2023-03-20T05:48:14;2.20;;;2.00;;
67749;SDS011;54550;48.838;8.828;2023-03-20T05:50:40;1.80;;;1.70;;
67749;SDS011;54550;48.838;8.828;2023-03-20T05:53:06;2.70;;;2.10;;
67749;SDS011;54550;48.838;8.828;2023-03-20T05:55:31;2.77;;;2.07;;
67749;SDS011;54550;48.838;8.828;2023-03-20T05:57:57;2.07;;;1.87;;
67749;SDS011;54550;48.838;8.828;2023-03-20T06:00:23;2.40;;;2.13;;
67749;SDS011;54550;48.838;8.828;2023-03-20T06:02:48;3.83;;;2.13;;
67749;SDS011;54550;48.838;8.828;2023-03-20T06:05:14;3.20;;;2.20;;
67749;SDS011;54550;48.838;8.828;2023-03-20T06:07:40;4.37;;;2.10;;
67749;SDS011;54550;48.838;8.828;2023-03-20T06:10:06;2.60;;;1.97;;
67749;SDS011;54550;48.838;8.828;2023-03-20T06:12:32;2.15;;;1.95;;
67749;SDS011;54550;48.838;8.828;2023-03-20T06:14:57;4.77;;;3.13;;
67749;SDS011;54550;48.838;8.828;2023-03-20T06:17:23;5.43;;;2.70;;
67749;SDS011;54550;48.838;8.828;2023-03-20T06:19:49;6.33;;;4.13;;
67749;SDS011;54550;48.838;8.828;2023-03-20T06:22:14;3.60;;;3.00;;
67749;SDS011;54550;48.838;8.828;2023-03-20T06:24:40;2.93;;;2.67;;
67749;SDS011;54550;48.838;8.828;2023-03-20T06:27:07;2.10;;;1.80;;
67749;SDS011;54550;48.838;8.828;2023-03-20T06:29:32;3.20;;;2.03;;
67749;SDS011;54550;48.838;8.828;2023-03-20T06:31:58;2.60;;;2.40;;
67749;SDS011;54550;48.838;8.828;2023-03-20T06:34:24;2.50;;;1.73;;
67749;SDS011;54550;48.838;8.828;2023-03-20T06:36:50;7.00;;;1.70;;
67749;SDS011;54550;48.838;8.828;2023-03-20T06:39:15;1.77;;;1.67;;
67749;SDS011;54550;48.838;8.828;2023-03-20T06:41:41;1.93;;;1.73;;
67749;SDS011;54550;48.838;8.828;2023-03-20T06:44:06;2.23;;;1.97;;
67749;SDS011;54550;48.838;8.828;2023-03-20T06:46:32;2.13;;;1.93;;
67749;SDS011;54550;48.838;8.828;2023-03-20T06:48:58;3.77;;;1.90;;
67749;SDS011;54550;48.838;8.828;2023-03-20T06:51:23;1.63;;;1.53;;
67749;SDS011;54550;48.838;8.828;2023-03-20T06:53:49;3.80;;;1.83;;
67749;SDS011;54550;48.838;8.828;2023-03-20T06:56:15;2.50;;;1.50;;
67749;SDS011;54550;48.838;8.828;2023-03-20T06:58:41;2.23;;;1.20;;
67749;SDS011;54550;48.838;8.828;2023-03-20T07:01:13;1.63;;;1.17;;
67749;SDS011;54550;48.838;8.828;2023-03-20T07:03:44;4.03;;;1.20;;
67749;SDS011;54550;48.838;8.828;2023-03-20T07:06:10;1.73;;;1.63;;
67749;SDS011;54550;48.838;8.828;2023-03-20T07:08:36;4.10;;;1.57;;
67749;SDS011;54550;48.838;8.828;2023-03-20T07:11:02;1.63;;;1.45;;
67749;SDS011;54550;48.838;8.828;2023-03-20T07:13:28;1.90;;;1.50;;
67749;SDS011;54550;48.838;8.828;2023-03-20T07:15:54;1.70;;;1.27;;
67749;SDS011;54550;48.838;8.828;2023-03-20T07:18:22;1.52;;;1.40;;
67749;SDS011;54550;48.838;8.828;2023-03-20T07:20:50;1.60;;;1.50;;
67749;SDS011;54550;48.838;8.828;2023-03-20T07:23:16;1.85;;;1.35;;
67749;SDS011;54550;48.838;8.828;2023-03-20T07:25:41;3.80;;;1.43;;
67749;SDS011;54550;48.838;8.828;2023-03-20T07:28:07;6.93;;;1.93;;
67749;SDS011;54550;48.838;8.828;2023-03-20T07:30:33;2.53;;;2.00;;
67749;SDS011;54550;48.838;8.828;2023-03-20T07:32:58;11.13;;;1.10;;
67749;SDS011;54550;48.838;8.828;2023-03-20T07:35:24;2.17;;;1.67;;
67749;SDS011;54550;48.838;8.828;2023-03-20T07:37:50;1.80;;;1.20;;
67749;SDS011;54550;48.838;8.828;2023-03-20T07:40:15;1.90;;;1.80;;
67749;SDS011;54550;48.838;8.828;2023-03-20T07:42:41;1.70;;;1.60;;
67749;SDS011;54550;48.838;8.828;2023-03-20T07:45:08;1.90;;;1.50;;
67749;SDS011;54550;48.838;8.828;2023-03-20T07:47:34;1.50;;;1.40;;
67749;SDS011;54550;48.838;8.828;2023-03-20T07:50:01;7.53;;;2.00;;
67749;SDS011;54550;48.838;8.828;2023-03-20T07:52:27;2.22;;;1.80;;
67749;SDS011;54550;48.838;8.828;2023-03-20T07:54:53;1.70;;;1.57;;
67749;SDS011;54550;48.838;8.828;2023-03-20T07:57:18;3.00;;;1.43;;
67749;SDS011;54550;48.838;8.828;2023-03-20T07:59:44;1.90;;;1.80;;
67749;SDS011;54550;48.838;8.828;2023-03-20T08:02:12;1.90;;;1.80;;
67749;SDS011;54550;48.838;8.828;2023-03-20T08:04:40;3.97;;;2.40;;
67749;SDS011;54550;48.838;8.828;2023-03-20T08:07:06;7.77;;;2.77;;
67749;SDS011;54550;48.838;8.828;2023-03-20T08:09:31;6.90;;;2.47;;
67749;SDS011;54550;48.838;8.828;2023-03-20T08:11:57;4.40;;;1.90;;
67749;SDS011;54550;48.838;8.828;2023-03-20T08:14:22;4.73;;;2.50;;
67749;SDS011;54550;48.838;8.828;2023-03-20T08:16:48;3.97;;;2.77;;
67749;SDS011;54550;48.838;8.828;2023-03-20T08:19:13;3.93;;;2.33;;
67749;SDS011;54550;48.838;8.828;2023-03-20T08:21:39;2.53;;;2.30;;
67749;SDS011;54550;48.838;8.828;2023-03-20T08:24:05;3.57;;;1.97;;
67749;SDS011;54550;48.838;8.828;2023-03-20T08:26:31;4.50;;;2.63;;
67749;SDS011;54550;48.838;8.828;2023-03-20T08:28:56;3.87;;;3.23;;
67749;SDS011;54550;48.838;8.828;2023-03-20T08:31:23;5.00;;;3.33;;
67749;SDS011;54550;48.838;8.828;2023-03-20T08:33:48;3.20;;;2.90;;
67749;SDS011;54550;48.838;8.828;2023-03-20T08:36:14;2.80;;;2.60;;
67749;SDS011;54550;48.838;8.828;2023-03-20T08:38:41;2.73;;;2.20;;
67749;SDS011;54550;48.838;8.828;2023-03-20T08:41:06;4.00;;;2.60;;
67749;SDS011;54550;48.838;8.828;2023-03-20T08:43:32;3.13;;;2.80;;
67749;SDS011;54550;48.838;8.828;2023-03-20T08:45:58;2.33;;;2.07;;
67749;SDS011;54550;48.838;8.828;2023-03-20T08:48:23;2.60;;;2.13;;
67749;SDS011;54550;48.838;8.828;2023-03-20T08:50:50;2.30;;;1.93;;
67749;SDS011;54550;48.838;8.828;2023-03-20T08:53:18;5.30;;;3.00;;
67749;SDS011;54550;48.838;8.828;2023-03-20T08:55:48;3.03;;;2.73;;
67749;SDS011;54550;48.838;8.828;2023-03-20T08:58:15;3.67;;;2.73;;
67749;SDS011;54550;48.838;8.828;2023-03-20T09:00:42;6.10;;;3.37;;
67749;SDS011;54550;48.838;8.828;2023-03-20T09:03:18;4.43;;;3.47;;
67749;SDS011;54550;48.838;8.828;2023-03-20T09:05:45;3.70;;;2.70;;
67749;SDS011;54550;48.838;8.828;2023-03-20T09:08:12;3.30;;;3.00;;
67749;SDS011;54550;48.838;8.828;2023-03-20T09:10:38;3.30;;;2.93;;
67749;SDS011;54550;48.838;8.828;2023-03-20T09:13:04;2.87;;;2.57;;
67749;SDS011;54550;48.838;8.828;2023-03-20T09:15:30;4.03;;;2.10;;
67749;SDS011;54550;48.838;8.828;2023-03-20T09:17:56;2.07;;;1.87;;
67749;SDS011;54550;48.838;8.828;2023-03-20T09:20:22;2.10;;;1.90;;
67749;SDS011;54550;48.838;8.828;2023-03-20T09:22:47;2.60;;;2.40;;
67749;SDS011;54550;48.838;8.828;2023-03-20T09:25:13;2.97;;;2.00;;
67749;SDS011;54550;48.838;8.828;2023-03-20T09:27:39;2.60;;;2.40;;
67749;SDS011;54550;48.838;8.828;2023-03-20T09:30:05;3.07;;;1.70;;
67749;SDS011;54550;48.838;8.828;2023-03-20T09:32:32;10.20;;;2.23;;
67749;SDS011;54550;48.838;8.828;2023-03-20T09:34:59;4.60;;;2.30;;
67749;SDS011;54550;48.838;8.828;2023-03-20T09:37:25;4.13;;;2.00;;
67749;SDS011;54550;48.838;8.828;2023-03-20T09:39:50;3.03;;;2.70;;
67749;SDS011;54550;48.838;8.828;2023-03-20T09:45:07;2.60;;;2.40;;
67749;SDS011;54550;48.838;8.828;2023-03-20T09:47:59;6.03;;;3.03;;
67749;SDS011;54550;48.838;8.828;2023-03-20T09:53:28;2.37;;;2.10;;
67749;SDS011;54550;48.838;8.828;2023-03-20T09:55:55;2.43;;;2.23;;
67749;SDS011;54550;48.838;8.828;2023-03-20T09:58:29;4.40;;;3.47;;
67749;SDS011;54550;48.838;8.828;2023-03-20T10:01:01;4.90;;;3.30;;
67749;SDS011;54550;48.838;8.828;2023-03-20T10:03:42;4.00;;;3.00;;
67749;SDS011;54550;48.838;8.828;2023-03-20T10:06:14;3.93;;;2.97;;
67749;SDS011;54550;48.838;8.828;2023-03-20T10:08:41;4.37;;;3.30;;
67749;SDS011;54550;48.838;8.828;2023-03-20T10:20:18;4.80;;;3.17;;
67749;SDS011;54550;48.838;8.828;2023-03-20T10:22:54;4.60;;;3.10;;
67749;SDS011;54550;48.838;8.828;2023-03-20T10:25:27;8.00;;;3.10;;
67749;SDS011;54550;48.838;8.828;2023-03-20T10:28:16;3.50;;;2.90;;
67749;SDS011;54550;48.838;8.828;2023-03-20T10:31:18;5.03;;;3.13;;
67749;SDS011;54550;48.838;8.828;2023-03-20T10:34:14;3.80;;;3.27;;
67749;SDS011;54550;48.838;8.828;2023-03-20T10:37:03;8.03;;;3.87;;
67749;SDS011;54550;48.838;8.828;2023-03-20T10:39:50;3.80;;;2.73;;
67749;SDS011;54550;48.838;8.828;2023-03-20T10:42:32;4.60;;;3.10;;
67749;SDS011;54550;48.838;8.828;2023-03-20T10:45:04;4.53;;;3.20;;
67749;SDS011;54550;48.838;8.828;2023-03-20T10:47:40;4.20;;;2.87;;
67749;SDS011;54550;48.838;8.828;2023-03-20T10:50:14;4.50;;;3.10;;
67749;SDS011;54550;48.838;8.828;2023-03-20T10:52:42;2.90;;;2.63;;
67749;SDS011;54550;48.838;8.828;2023-03-20T10:55:17;4.43;;;2.80;;
67749;SDS011;54550;48.838;8.828;2023-03-20T10:57:50;4.40;;;2.33;;
67749;SDS011;54550;48.838;8.828;2023-03-20T11:00:21;3.10;;;2.80;;
67749;SDS011;54550;48.838;8.828;2023-03-20T11:02:48;5.07;;;3.40;;
67749;SDS011;54550;48.838;8.828;2023-03-20T11:05:20;4.50;;;3.67;;
67749;SDS011;54550;48.838;8.828;2023-03-20T11:07:48;3.53;;;3.03;;
67749;SDS011;54550;48.838;8.828;2023-03-20T11:10:16;3.40;;;3.10;;
67749;SDS011;54550;48.838;8.828;2023-03-20T11:12:43;5.50;;;2.50;;
67749;SDS011;54550;48.838;8.828;2023-03-20T11:18:11;4.60;;;2.60;;
67749;SDS011;54550;48.838;8.828;2023-03-20T11:21:00;3.97;;;3.07;;
67749;SDS011;54550;48.838;8.828;2023-03-20T11:23:33;3.30;;;2.40;;
67749;SDS011;54550;48.838;8.828;2023-03-20T11:26:00;4.40;;;2.73;;
67749;SDS011;54550;48.838;8.828;2023-03-20T11:31:02;4.20;;;3.10;;
67749;SDS011;54550;48.838;8.828;2023-03-20T11:33:28;3.57;;;2.97;;
67749;SDS011;54550;48.838;8.828;2023-03-20T11:35:55;6.20;;;3.40;;
67749;SDS011;54550;48.838;8.828;2023-03-20T11:38:22;7.37;;;3.30;;
67749;SDS011;54550;48.838;8.828;2023-03-20T11:40:48;2.80;;;2.60;;
67749;SDS011;54550;48.838;8.828;2023-03-20T11:43:18;3.23;;;2.93;;
67749;SDS011;54550;48.838;8.828;2023-03-20T11:45:45;4.00;;;3.43;;
67749;SDS011;54550;48.838;8.828;2023-03-20T11:48:19;3.50;;;2.67;;
67749;SDS011;54550;48.838;8.828;2023-03-20T11:50:51;2.67;;;2.40;;
67749;SDS011;54550;48.838;8.828;2023-03-20T11:53:27;6.80;;;3.53;;
67749;SDS011;54550;48.838;8.828;2023-03-20T11:56:50;3.77;;;2.93;;
67749;SDS011;54550;48.838;8.828;2023-03-20T11:59:03;3.80;;;2.73;;
67749;SDS011;54550;48.838;8.828;2023-03-20T12:01:38;5.83;;;2.53;;
67749;SDS011;54550;48.838;8.828;2023-03-20T12:04:13;3.27;;;2.37;;
67749;SDS011;54550;48.838;8.828;2023-03-20T12:12:02;4.97;;;2.90;;
67749;SDS011;54550;48.838;8.828;2023-03-20T12:20:18;4.00;;;2.53;;
67749;SDS011;54550;48.838;8.828;2023-03-20T12:22:49;3.50;;;2.20;;
67749;SDS011;54550;48.838;8.828;2023-03-20T12:25:21;3.67;;;2.97;;
67749;SDS011;54550;48.838;8.828;2023-03-20T12:27:52;2.50;;;2.10;;
67749;SDS011;54550;48.838;8.828;2023-03-20T12:30:29;3.97;;;2.07;;
67749;SDS011;54550;48.838;8.828;2023-03-20T12:33:02;4.50;;;2.13;;
67749;SDS011;54550;48.838;8.828;2023-03-20T12:35:29;3.90;;;1.80;;
67749;SDS011;54550;48.838;8.828;2023-03-20T12:37:56;5.10;;;2.47;;
67749;SDS011;54550;48.838;8.828;2023-03-20T12:40:34;1.37;;;1.23;;
67749;SDS011;54550;48.838;8.828;2023-03-20T12:43:04;2.20;;;1.70;;
67749;SDS011;54550;48.838;8.828;2023-03-20T12:45:32;3.03;;;1.47;;
67749;SDS011;54550;48.838;8.828;2023-03-20T12:48:13;2.43;;;1.90;;
67749;SDS011;54550;48.838;8.828;2023-03-20T12:50:44;2.03;;;1.57;;
67749;SDS011;54550;48.838;8.828;2023-03-20T12:53:30;2.17;;;1.73;;
67749;SDS011;54550;48.838;8.828;2023-03-20T12:58:46;1.93;;;1.33;;
67749;SDS011;54550;48.838;8.828;2023-03-20T13:01:15;5.27;;;2.30;;
67749;SDS011;54550;48.838;8.828;2023-03-20T13:03:47;15.13;;;1.93;;
67749;SDS011;54550;48.838;8.828;2023-03-20T13:11:24;3.13;;;1.17;;
67749;SDS011;54550;48.838;8.828;2023-03-20T13:19:40;4.43;;;1.30;;
67749;SDS011;54550;48.838;8.828;2023-03-20T13:22:12;6.40;;;2.83;;
67749;SDS011;54550;48.838;8.828;2023-03-20T13:24:40;2.97;;;1.43;;
67749;SDS011;54550;48.838;8.828;2023-03-20T13:27:18;2.80;;;1.07;;
67749;SDS011;54550;48.838;8.828;2023-03-20T13:32:33;2.10;;;1.90;;
67749;SDS011;54550;48.838;8.828;2023-03-20T13:35:22;4.33;;;2.40;;
67749;SDS011;54550;48.838;8.828;2023-03-20T13:37:57;1.53;;;1.37;;
67749;SDS011;54550;48.838;8.828;2023-03-20T13:40:28;5.13;;;1.80;;
67749;SDS011;54550;48.838;8.828;2023-03-20T13:45:40;8.43;;;1.20;;
67749;SDS011;54550;48.838;8.828;2023-03-20T13:58:36;2.13;;;1.77;;
67749;SDS011;54550;48.838;8.828;2023-03-20T14:01:07;2.20;;;2.00;;
67749;SDS011;54550;48.838;8.828;2023-03-20T14:03:39;1.57;;;1.47;;
67749;SDS011;54550;48.838;8.828;2023-03-20T14:06:16;4.67;;;2.10;;
67749;SDS011;54550;48.838;8.828;2023-03-20T14:08:51;1.90;;;1.60;;
67749;SDS011;54550;48.838;8.828;2023-03-20T14:16:28;3.43;;;1.83;;
67749;SDS011;54550;48.838;8.828;2023-03-20T14:19:12;2.70;;;2.40;;
67749;SDS011;54550;48.838;8.828;2023-03-20T14:21:43;2.33;;;2.13;;
67749;SDS011;54550;48.838;8.828;2023-03-20T14:24:10;3.57;;;1.80;;
67749;SDS011;54550;48.838;8.828;2023-03-20T14:26:38;2.13;;;1.50;;
67749;SDS011;54550;48.838;8.828;2023-03-20T14:31:36;2.93;;;2.63;;
67749;SDS011;54550;48.838;8.828;2023-03-20T14:41:54;2.70;;;2.27;;
67749;SDS011;54550;48.838;8.828;2023-03-20T14:47:21;4.80;;;3.00;;
67749;SDS011;54550;48.838;8.828;2023-03-20T14:57:42;5.83;;;2.17;;
67749;SDS011;54550;48.838;8.828;2023-03-20T15:00:17;5.07;;;3.10;;
67749;SDS011;54550;48.838;8.828;2023-03-20T15:02:45;6.90;;;2.47;;
67749;SDS011;54550;48.838;8.828;2023-03-20T15:05:26;2.37;;;1.90;;
67749;SDS011;54550;48.838;8.828;2023-03-20T15:07:53;3.60;;;2.50;;
67749;SDS011;54550;48.838;8.828;2023-03-20T15:10:20;19.20;;;2.10;;
67749;SDS011;54550;48.838;8.828;2023-03-20T15:12:46;2.70;;;1.97;;
67749;SDS011;54550;48.838;8.828;2023-03-20T15:16:13;2.67;;;1.80;;
67749;SDS011;54550;48.838;8.828;2023-03-20T15:18:12;5.43;;;2.47;;
67749;SDS011;54550;48.838;8.828;2023-03-20T15:20:38;9.43;;;2.30;;
67749;SDS011;54550;48.838;8.828;2023-03-20T15:23:04;3.20;;;2.43;;
67749;SDS011;54550;48.838;8.828;2023-03-20T15:25:37;4.53;;;2.90;;
67749;SDS011;54550;48.838;8.828;2023-03-20T15:28:07;4.00;;;2.00;;
67749;SDS011;54550;48.838;8.828;2023-03-20T15:30:35;7.10;;;2.20;;
67749;SDS011;54550;48.838;8.828;2023-03-20T15:33:02;50.23;;;4.07;;
67749;SDS011;54550;48.838;8.828;2023-03-20T15:35:28;8.90;;;2.43;;
67749;SDS011;54550;48.838;8.828;2023-03-20T15:37:55;3.40;;;2.20;;
67749;SDS011;54550;48.838;8.828;2023-03-20T15:40:24;5.63;;;1.73;;
67749;SDS011;54550;48.838;8.828;2023-03-20T15:43:14;3.27;;;2.23;;
67749;SDS011;54550;48.838;8.828;2023-03-20T15:45:38;2.50;;;1.73;;
67749;SDS011;54550;48.838;8.828;2023-03-20T15:48:10;4.23;;;2.20;;
67749;SDS011;54550;48.838;8.828;2023-03-20T15:50:38;1.93;;;1.73;;
67749;SDS011;54550;48.838;8.828;2023-03-20T15:53:05;5.50;;;2.07;;
67749;SDS011;54550;48.838;8.828;2023-03-20T15:55:33;5.70;;;2.63;;
67749;SDS011;54550;48.838;8.828;2023-03-20T15:58:00;2.83;;;2.30;;
67749;SDS011;54550;48.838;8.828;2023-03-20T16:00:33;6.00;;;2.27;;
67749;SDS011;54550;48.838;8.828;2023-03-20T16:03:04;5.93;;;3.10;;
67749;SDS011;54550;48.838;8.828;2023-03-20T16:05:31;2.70;;;2.43;;
67749;SDS011;54550;48.838;8.828;2023-03-20T16:08:10;3.67;;;2.73;;
67749;SDS011;54550;48.838;8.828;2023-03-20T16:10:39;2.70;;;2.07;;
67749;SDS011;54550;48.838;8.828;2023-03-20T16:13:06;5.67;;;2.33;;
67749;SDS011;54550;48.838;8.828;2023-03-20T16:15:32;6.60;;;2.50;;
67749;SDS011;54550;48.838;8.828;2023-03-20T16:17:59;2.20;;;1.90;;
67749;SDS011;54550;48.838;8.828;2023-03-20T16:20:27;3.67;;;2.70;;
67749;SDS011;54550;48.838;8.828;2023-03-20T16:22:56;5.23;;;3.23;;
67749;SDS011;54550;48.838;8.828;2023-03-20T16:25:24;4.60;;;2.17;;
67749;SDS011;54550;48.838;8.828;2023-03-20T16:27:50;4.73;;;1.90;;
67749;SDS011;54550;48.838;8.828;2023-03-20T16:30:17;9.93;;;2.63;;
67749;SDS011;54550;48.838;8.828;2023-03-20T16:32:45;7.10;;;2.47;;
67749;SDS011;54550;48.838;8.828;2023-03-20T16:35:16;5.07;;;2.40;;
67749;SDS011;54550;48.838;8.828;2023-03-20T16:37:47;6.50;;;2.00;;
67749;SDS011;54550;48.838;8.828;2023-03-20T16:40:18;3.10;;;2.40;;
67749;SDS011;54550;48.838;8.828;2023-03-20T16:42:46;5.93;;;2.87;;
67749;SDS011;54550;48.838;8.828;2023-03-20T16:45:16;2.70;;;2.10;;
67749;SDS011;54550;48.838;8.828;2023-03-20T16:47:45;4.43;;;2.40;;
67749;SDS011;54550;48.838;8.828;2023-03-20T16:52:39;2.80;;;2.50;;
67749;SDS011;54550;48.838;8.828;2023-03-20T16:55:11;2.17;;;1.90;;
67749;SDS011;54550;48.838;8.828;2023-03-20T16:57:38;3.27;;;2.30;;
67749;SDS011;54550;48.838;8.828;2023-03-20T17:00:06;7.07;;;2.40;;
67749;SDS011;54550;48.838;8.828;2023-03-20T17:02:36;6.07;;;1.80;;
67749;SDS011;54550;48.838;8.828;2023-03-20T17:05:03;3.88;;;2.60;;
67749;SDS011;54550;48.838;8.828;2023-03-20T17:07:31;3.07;;;2.20;;
67749;SDS011;54550;48.838;8.828;2023-03-20T17:12:42;5.38;;;2.10;;
67749;SDS011;54550;48.838;8.828;2023-03-20T17:15:09;2.70;;;1.60;;
67749;SDS011;54550;48.838;8.828;2023-03-20T17:17:38;1.70;;;1.57;;
67749;SDS011;54550;48.838;8.828;2023-03-20T17:20:05;3.47;;;1.95;;
67749;SDS011;54550;48.838;8.828;2023-03-20T17:22:31;9.70;;;2.23;;